createdAt,value
2018-09-29T00:02:26.437Z,95.00
2018-09-29T00:04:55.243Z,95.00
2018-09-29T00:07:23.992Z,94.90
2018-09-29T00:09:52.739Z,94.90
2018-09-29T00:12:21.437Z,94.90
2018-09-29T00:14:50.162Z,94.90
2018-09-29T00:17:18.866Z,94.80
2018-09-29T00:19:47.606Z,94.90
2018-09-29T00:22:16.309Z,94.90
2018-09-29T00:24:45.012Z,94.90
2018-09-29T00:27:13.722Z,94.90
2018-09-29T00:29:42.438Z,94.90
2018-09-29T00:32:11.121Z,95.00
2018-09-29T00:34:39.850Z,94.90
2018-09-29T00:37:08.593Z,94.90
2018-09-29T00:39:37.314Z,94.80
2018-09-29T00:42:06.018Z,94.90
2018-09-29T00:44:34.749Z,94.90
2018-09-29T00:47:03.458Z,94.90
2018-09-29T00:49:32.178Z,94.90
2018-09-29T00:52:00.873Z,94.90
2018-09-29T00:54:29.650Z,94.80
2018-09-29T00:56:58.346Z,94.80
2018-09-29T00:59:27.107Z,94.80
2018-09-29T01:01:55.856Z,94.80
2018-09-29T01:04:24.634Z,94.80
2018-09-29T01:06:53.334Z,94.70
2018-09-29T01:09:22.081Z,94.80
2018-09-29T01:11:50.784Z,94.80
2018-09-29T01:14:19.453Z,94.90
2018-09-29T01:16:48.200Z,94.80
2018-09-29T01:19:16.885Z,94.90
2018-09-29T01:21:45.609Z,94.80
2018-09-29T01:24:14.285Z,94.70
2018-09-29T01:26:43.022Z,94.70
2018-09-29T01:29:11.718Z,94.70
2018-09-29T01:31:46.681Z,94.70
2018-09-29T01:34:15.374Z,94.80
2018-09-29T01:36:44.101Z,94.70
2018-09-29T01:39:12.850Z,94.70
2018-09-29T01:41:41.584Z,94.70
2018-09-29T01:44:10.514Z,94.70
2018-09-29T01:46:39.329Z,94.60
2018-09-29T01:49:07.999Z,94.60
2018-09-29T01:51:36.728Z,94.60
2018-09-29T01:54:05.453Z,94.60
2018-09-29T01:56:34.185Z,94.60
2018-09-29T01:59:02.930Z,94.70
2018-09-29T02:01:31.674Z,94.70
2018-09-29T02:04:00.417Z,94.70
2018-09-29T02:06:29.159Z,94.70
2018-09-29T02:08:57.849Z,94.70
2018-09-29T02:11:26.594Z,94.80
2018-09-29T02:13:55.310Z,94.70
2018-09-29T02:16:24.060Z,94.70
2018-09-29T02:18:52.762Z,94.70
2018-09-29T02:21:21.569Z,94.60
2018-09-29T02:23:50.247Z,94.60
2018-09-29T02:26:18.961Z,94.30
2018-09-29T02:28:47.762Z,94.60
2018-09-29T02:31:16.455Z,94.50
2018-09-29T02:33:45.173Z,94.80
2018-09-29T02:36:13.876Z,94.50
2018-09-29T02:38:42.603Z,94.50
2018-09-29T02:41:11.298Z,94.50
2018-09-29T02:43:40.018Z,94.80
2018-09-29T02:46:08.790Z,94.40
2018-09-29T02:48:37.514Z,94.40
2018-09-29T02:51:06.300Z,94.30
2018-09-29T02:53:35.022Z,94.40
2018-09-29T02:56:03.709Z,94.40
2018-09-29T02:58:32.509Z,94.40
2018-09-29T03:01:01.211Z,94.40
2018-09-29T03:03:29.946Z,94.40
2018-09-29T03:05:58.745Z,94.30
2018-09-29T03:08:27.476Z,94.30
2018-09-29T03:10:56.246Z,94.30
2018-09-29T03:13:25.061Z,94.30
2018-09-29T03:15:53.774Z,94.30
2018-09-29T03:18:22.516Z,94.30
2018-09-29T03:20:51.221Z,94.30
2018-09-29T03:23:19.956Z,94.40
2018-09-29T03:25:48.649Z,94.30
2018-09-29T03:28:17.354Z,94.40
2018-09-29T03:30:46.039Z,94.40
2018-09-29T03:33:14.759Z,94.40
2018-09-29T03:35:43.454Z,94.40
2018-09-29T03:38:12.187Z,94.30
2018-09-29T03:40:40.910Z,94.40
2018-09-29T03:43:09.632Z,94.20
2018-09-29T03:45:38.322Z,94.20
2018-09-29T03:48:07.053Z,94.10
2018-09-29T03:50:35.790Z,94.20
2018-09-29T03:53:04.505Z,94.10
2018-09-29T03:55:33.242Z,94.20
2018-09-29T03:58:01.987Z,94.20
2018-09-29T04:00:30.737Z,94.20
2018-09-29T04:02:59.457Z,94.20
2018-09-29T04:05:28.225Z,94.10
2018-09-29T04:07:56.921Z,94.10
2018-09-29T04:10:25.730Z,94.10
2018-09-29T04:12:54.466Z,94.00
2018-09-29T04:15:23.295Z,94.10
2018-09-29T04:17:52.835Z,94.00
2018-09-29T04:20:21.629Z,94.10
2018-09-29T04:22:50.336Z,94.10
2018-09-29T04:25:19.062Z,94.20
2018-09-29T04:27:47.757Z,94.20
2018-09-29T04:30:16.482Z,94.20
2018-09-29T04:32:45.202Z,94.20
2018-09-29T04:35:13.922Z,94.20
2018-09-29T04:37:42.645Z,94.10
2018-09-29T04:40:11.373Z,94.10
2018-09-29T04:42:40.112Z,94.10
2018-09-29T04:45:08.886Z,94.00
2018-09-29T04:47:37.614Z,94.00
2018-09-29T04:50:06.431Z,94.10
2018-09-29T04:52:35.242Z,94.00
2018-09-29T04:55:04.118Z,94.20
2018-09-29T04:57:32.799Z,94.20
2018-09-29T05:00:01.518Z,94.10
2018-09-29T05:02:30.274Z,94.10
2018-09-29T05:04:59.061Z,94.10
2018-09-29T05:07:27.878Z,94.10
2018-09-29T05:09:56.576Z,94.20
2018-09-29T05:12:25.305Z,94.10
2018-09-29T05:14:54.622Z,94.10
2018-09-29T05:17:23.381Z,94.00
2018-09-29T05:19:52.094Z,94.00
2018-09-29T05:22:20.904Z,93.90
2018-09-29T05:24:49.658Z,94.00
2018-09-29T05:27:18.500Z,94.00
2018-09-29T05:29:47.278Z,94.00
2018-09-29T05:32:16.039Z,94.00
2018-09-29T05:34:44.771Z,94.00
2018-09-29T05:37:13.527Z,94.00
2018-09-29T05:39:42.294Z,94.00
2018-09-29T05:42:11.041Z,94.00
2018-09-29T05:44:39.763Z,93.90
2018-09-29T05:47:08.486Z,93.90
2018-09-29T05:49:37.198Z,93.90
2018-09-29T05:52:05.929Z,93.90
2018-09-29T05:54:34.709Z,93.90
2018-09-29T05:57:03.623Z,93.80
2018-09-29T05:59:32.356Z,93.80
2018-09-29T06:02:01.066Z,93.80
2018-09-29T06:04:30.098Z,94.10
2018-09-29T06:06:58.909Z,93.80
2018-09-29T06:09:27.713Z,93.80
2018-09-29T06:11:56.449Z,93.80
2018-09-29T06:14:25.219Z,93.80
2018-09-29T06:16:53.969Z,93.80
2018-09-29T06:19:22.833Z,93.80
2018-09-29T06:21:51.533Z,94.10
2018-09-29T06:24:20.335Z,94.40
2018-09-29T06:26:49.074Z,94.30
2018-09-29T06:29:17.796Z,93.90
2018-09-29T06:31:46.485Z,93.40
2018-09-29T06:34:15.268Z,92.60
2018-09-29T06:36:44.035Z,92.60
2018-09-29T06:39:12.949Z,92.60
2018-09-29T06:41:41.646Z,92.70
2018-09-29T06:44:10.366Z,92.20
2018-09-29T06:46:39.184Z,91.70
2018-09-29T06:49:07.909Z,93.40
2018-09-29T06:51:36.614Z,96.60
2018-09-29T06:54:05.338Z,95.10
2018-09-29T06:56:34.022Z,93.70
2018-09-29T06:59:02.862Z,96.10
2018-09-29T07:01:31.569Z,96.20
2018-09-29T07:04:00.358Z,96.60
2018-09-29T07:06:29.119Z,96.70
2018-09-29T07:08:57.857Z,97.00
2018-09-29T07:11:26.574Z,95.70
2018-09-29T07:13:55.397Z,94.10
2018-09-29T07:16:24.130Z,93.70
2018-09-29T07:18:52.825Z,94.30
2018-09-29T07:21:21.538Z,93.70
2018-09-29T07:23:50.241Z,92.90
2018-09-29T07:26:18.994Z,93.00
2018-09-29T07:28:47.689Z,93.90
2018-09-29T07:31:16.515Z,94.10
2018-09-29T07:33:45.161Z,93.20
2018-09-29T07:36:13.882Z,92.40
2018-09-29T07:38:42.614Z,93.00
2018-09-29T07:41:11.338Z,94.30
2018-09-29T07:43:40.040Z,95.50
2018-09-29T07:46:08.775Z,96.00
2018-09-29T07:48:37.505Z,97.80
2018-09-29T07:51:06.380Z,96.90
2018-09-29T07:53:35.245Z,95.80
2018-09-29T07:56:04.101Z,97.00
2018-09-29T07:58:32.846Z,95.00
2018-09-29T08:01:01.880Z,94.10
2018-09-29T08:03:30.628Z,95.40
2018-09-29T08:05:59.405Z,97.40
2018-09-29T08:08:28.142Z,97.40
2018-09-29T08:10:56.898Z,98.10
2018-09-29T08:13:25.602Z,97.20
2018-09-29T08:15:54.346Z,98.10
2018-09-29T08:18:23.113Z,98.20
2018-09-29T08:20:51.822Z,95.60
2018-09-29T08:23:20.574Z,94.90
2018-09-29T08:25:49.293Z,96.10
2018-09-29T08:28:18.026Z,96.20
2018-09-29T08:30:46.741Z,95.00
2018-09-29T08:33:15.497Z,94.30
2018-09-29T08:35:44.258Z,96.20
2018-09-29T08:38:12.994Z,94.60
2018-09-29T08:40:41.705Z,95.80
2018-09-29T08:43:10.496Z,97.20
2018-09-29T08:45:39.214Z,96.50
2018-09-29T08:48:07.950Z,95.40
2018-09-29T08:50:36.658Z,95.00
2018-09-29T08:53:05.459Z,94.30
2018-09-29T08:55:34.166Z,92.70
2018-09-29T08:58:02.919Z,94.50
2018-09-29T09:00:31.633Z,93.70
2018-09-29T09:03:00.362Z,92.50
2018-09-29T09:05:29.096Z,94.00
2018-09-29T09:07:57.841Z,94.10
2018-09-29T09:10:26.570Z,94.60
2018-09-29T09:12:55.315Z,92.80
2018-09-29T09:15:24.050Z,91.90
2018-09-29T09:17:53.643Z,93.60
2018-09-29T09:20:22.369Z,90.90
2018-09-29T09:22:51.141Z,91.30
2018-09-29T09:25:19.918Z,90.80
2018-09-29T09:27:48.620Z,89.40
2018-09-29T09:30:17.441Z,90.60
2018-09-29T09:32:46.421Z,92.00
2018-09-29T09:35:15.251Z,90.70
2018-09-29T09:37:43.956Z,90.40
2018-09-29T09:40:12.671Z,90.30
2018-09-29T09:42:41.373Z,91.30
2018-09-29T09:45:10.120Z,91.50
2018-09-29T09:47:38.843Z,84.40
2018-09-29T09:50:07.590Z,84.60
2018-09-29T09:52:36.298Z,85.20
2018-09-29T09:55:05.134Z,82.50
2018-09-29T09:57:33.882Z,85.70
2018-09-29T10:00:02.630Z,86.70
2018-09-29T10:02:36.625Z,86.00
2018-09-29T10:05:05.751Z,85.40
2018-09-29T10:07:34.439Z,84.80
2018-09-29T10:10:03.270Z,85.30
2018-09-29T10:12:38.697Z,84.30
2018-09-29T10:15:07.465Z,88.00
2018-09-29T10:17:36.259Z,86.70
2018-09-29T10:20:05.318Z,85.90
2018-09-29T10:22:34.035Z,88.80
2018-09-29T10:25:02.759Z,84.80
2018-09-29T10:27:31.549Z,87.00
2018-09-29T10:30:00.247Z,85.50
2018-09-29T10:32:28.942Z,90.00
2018-09-29T10:34:57.748Z,85.20
2018-09-29T10:37:26.442Z,84.70
2018-09-29T10:39:55.174Z,91.00
2018-09-29T10:42:23.882Z,87.80
2018-09-29T10:44:52.577Z,87.20
2018-09-29T10:47:21.410Z,87.90
2018-09-29T10:49:50.100Z,88.50
2018-09-29T10:52:18.877Z,83.20
2018-09-29T10:54:47.734Z,86.60
2018-09-29T10:57:16.492Z,87.30
2018-09-29T10:59:45.330Z,86.90
2018-09-29T11:02:14.062Z,89.30
2018-09-29T11:04:42.794Z,85.30
2018-09-29T11:07:11.520Z,84.30
2018-09-29T11:09:40.309Z,88.40
2018-09-29T11:12:09.051Z,82.30
2018-09-29T11:14:37.762Z,86.10
2018-09-29T11:17:06.570Z,84.60
2018-09-29T11:19:35.330Z,85.90
2018-09-29T11:22:04.074Z,85.00
2018-09-29T11:24:32.782Z,85.20
2018-09-29T11:27:01.522Z,84.60
2018-09-29T11:29:30.230Z,84.50
2018-09-29T11:31:58.978Z,87.70
2018-09-29T11:34:27.676Z,87.80
2018-09-29T11:36:56.400Z,86.70
2018-09-29T11:39:25.132Z,85.00
2018-09-29T11:41:53.938Z,82.20
2018-09-29T11:44:22.642Z,82.50
2018-09-29T11:46:51.426Z,86.40
2018-09-29T11:49:20.178Z,88.90
2018-09-29T11:51:48.933Z,82.30
2018-09-29T11:54:17.670Z,82.80
2018-09-29T11:56:46.383Z,90.60
2018-09-29T11:59:15.125Z,83.50
2018-09-29T12:01:43.887Z,81.90
2018-09-29T12:04:12.653Z,77.70
2018-09-29T12:06:41.365Z,78.20
2018-09-29T12:09:11.879Z,80.60
2018-09-29T12:11:40.773Z,82.30
2018-09-29T12:14:09.610Z,80.00
2018-09-29T12:16:38.354Z,85.70
2018-09-29T12:19:07.094Z,83.60
2018-09-29T12:21:35.802Z,77.30
2018-09-29T12:24:04.563Z,79.00
2018-09-29T12:26:33.485Z,79.40
2018-09-29T12:29:02.231Z,74.30
2018-09-29T12:31:30.947Z,82.40
2018-09-29T12:33:59.685Z,81.00
2018-09-29T12:36:28.365Z,79.20
2018-09-29T12:38:57.114Z,79.90
2018-09-29T12:41:25.802Z,83.30
2018-09-29T12:43:54.538Z,73.20
2018-09-29T12:46:23.236Z,78.60
2018-09-29T12:48:51.976Z,81.60
2018-09-29T12:51:20.738Z,72.70
2018-09-29T12:53:49.446Z,76.70
2018-09-29T12:56:18.169Z,76.60
2018-09-29T12:58:46.929Z,79.50
2018-09-29T13:01:15.639Z,77.70
2018-09-29T13:03:44.382Z,76.30
2018-09-29T13:06:13.235Z,73.40
2018-09-29T13:08:41.956Z,79.70
2018-09-29T13:11:10.718Z,75.40
2018-09-29T13:13:39.411Z,77.40
2018-09-29T13:16:08.146Z,69.80
2018-09-29T13:18:36.845Z,79.90
2018-09-29T13:21:05.581Z,77.80
2018-09-29T13:23:34.315Z,77.10
2018-09-29T13:26:03.070Z,71.30
2018-09-29T13:28:31.780Z,73.00
2018-09-29T13:31:00.554Z,73.30
2018-09-29T13:33:29.264Z,71.30
2018-09-29T13:35:58.098Z,73.10
2018-09-29T13:38:26.850Z,78.60
2018-09-29T13:40:55.586Z,73.80
2018-09-29T13:43:24.300Z,78.60
2018-09-29T13:45:53.062Z,71.80
2018-09-29T13:48:21.778Z,75.30
2018-09-29T13:50:50.525Z,72.70
2018-09-29T13:53:19.211Z,73.60
2018-09-29T13:55:48.006Z,76.30
2018-09-29T13:58:16.865Z,73.70
2018-09-29T14:00:45.608Z,71.40
2018-09-29T14:03:14.322Z,85.00
2018-09-29T14:05:43.057Z,74.20
2018-09-29T14:08:11.805Z,69.90
2018-09-29T14:10:40.515Z,71.00
2018-09-29T14:13:09.253Z,69.60
2018-09-29T14:15:37.984Z,68.50
2018-09-29T14:18:06.390Z,71.90
2018-09-29T14:20:35.130Z,68.40
2018-09-29T14:23:03.899Z,69.10
2018-09-29T14:25:32.606Z,66.10
2018-09-29T14:28:01.345Z,70.90
2018-09-29T14:30:30.134Z,69.40
2018-09-29T14:32:58.942Z,72.30
2018-09-29T14:35:27.642Z,68.00
2018-09-29T14:37:56.377Z,70.50
2018-09-29T14:40:25.070Z,72.40
2018-09-29T14:42:53.805Z,68.10
2018-09-29T14:45:22.505Z,69.20
2018-09-29T14:47:51.240Z,70.50
2018-09-29T14:50:20.167Z,67.00
2018-09-29T14:52:48.902Z,73.50
2018-09-29T14:55:17.610Z,74.70
2018-09-29T14:57:46.523Z,72.60
2018-09-29T15:00:15.136Z,74.40
2018-09-29T15:02:43.884Z,72.60
2018-09-29T15:05:12.598Z,72.00
2018-09-29T15:07:41.321Z,70.30
2018-09-29T15:10:10.034Z,71.80
2018-09-29T15:12:38.782Z,71.30
2018-09-29T15:15:07.989Z,70.50
2018-09-29T15:17:36.957Z,70.80
2018-09-29T15:20:05.855Z,72.80
2018-09-29T15:22:34.567Z,70.30
2018-09-29T15:25:03.341Z,72.80
2018-09-29T15:27:32.042Z,71.80
2018-09-29T15:30:00.840Z,75.80
2018-09-29T15:32:29.558Z,75.50
2018-09-29T15:34:58.293Z,74.80
2018-09-29T15:37:26.974Z,75.80
2018-09-29T15:39:55.782Z,77.40
2018-09-29T15:42:24.754Z,76.80
2018-09-29T15:44:53.513Z,70.50
2018-09-29T15:47:22.206Z,70.20
2018-09-29T15:49:50.979Z,73.00
2018-09-29T15:52:19.706Z,72.20
2018-09-29T15:54:48.541Z,74.00
2018-09-29T15:57:17.262Z,74.00
2018-09-29T15:59:46.002Z,72.30
2018-09-29T16:02:14.711Z,76.20
2018-09-29T16:04:43.483Z,73.40
2018-09-29T16:07:12.177Z,75.50
2018-09-29T16:09:40.923Z,75.00
2018-09-29T16:12:09.679Z,73.70
2018-09-29T16:14:38.394Z,76.00
2018-09-29T16:17:07.146Z,76.00
2018-09-29T16:19:35.882Z,76.40
2018-09-29T16:22:04.618Z,75.80
2018-09-29T16:24:33.326Z,76.80
2018-09-29T16:27:02.070Z,76.80
2018-09-29T16:29:30.859Z,77.40
2018-09-29T16:31:59.830Z,77.70
2018-09-29T16:34:28.714Z,77.30
2018-09-29T16:36:57.469Z,77.20
2018-09-29T16:39:26.150Z,78.00
2018-09-29T16:41:54.910Z,77.00
2018-09-29T16:44:23.634Z,78.10
2018-09-29T16:46:52.390Z,78.40
2018-09-29T16:49:21.082Z,78.90
2018-09-29T16:51:49.920Z,78.80
2018-09-29T16:54:18.681Z,79.50
2018-09-29T16:56:47.405Z,79.60
2018-09-29T16:59:16.089Z,79.50
2018-09-29T17:01:44.813Z,80.00
2018-09-29T17:04:13.588Z,80.60
2018-09-29T17:06:42.306Z,80.70
2018-09-29T17:09:12.231Z,81.10
2018-09-29T17:11:40.994Z,80.90
2018-09-29T17:14:09.726Z,81.50
2018-09-29T17:16:38.447Z,82.20
2018-09-29T17:19:07.545Z,82.10
2018-09-29T17:21:36.329Z,82.60
2018-09-29T17:24:05.069Z,82.90
2018-09-29T17:26:33.840Z,83.10
2018-09-29T17:29:02.557Z,82.40
2018-09-29T17:31:31.289Z,83.00
2018-09-29T17:33:59.996Z,83.20
2018-09-29T17:36:29.438Z,83.10
2018-09-29T17:38:58.189Z,83.60
2018-09-29T17:41:26.881Z,84.80
2018-09-29T17:43:55.645Z,84.80
2018-09-29T17:46:24.393Z,85.30
2018-09-29T17:48:53.143Z,86.40
2018-09-29T17:51:21.908Z,84.80
2018-09-29T17:53:50.661Z,85.00
2018-09-29T17:56:19.435Z,85.10
2018-09-29T17:58:48.185Z,85.40
2018-09-29T18:01:16.898Z,85.80
2018-09-29T18:03:45.651Z,85.60
2018-09-29T18:06:14.362Z,85.80
2018-09-29T18:08:43.101Z,86.10
2018-09-29T18:11:11.866Z,86.00
2018-09-29T18:13:40.763Z,86.50
2018-09-29T18:16:09.444Z,86.40
2018-09-29T18:18:38.198Z,86.40
2018-09-29T18:21:07.130Z,85.60
2018-09-29T18:23:36.337Z,85.90
2018-09-29T18:26:05.045Z,86.10
2018-09-29T18:28:33.765Z,86.30
2018-09-29T18:31:02.470Z,86.70
2018-09-29T18:33:31.266Z,87.50
2018-09-29T18:36:00.070Z,87.40
2018-09-29T18:38:28.821Z,87.50
2018-09-29T18:40:57.644Z,87.30
2018-09-29T18:43:26.358Z,87.30
2018-09-29T18:45:55.158Z,88.00
2018-09-29T18:48:23.921Z,88.80
2018-09-29T18:50:52.666Z,89.80
2018-09-29T18:53:21.369Z,90.00
2018-09-29T18:55:50.114Z,90.20
2018-09-29T18:58:18.860Z,90.20
2018-09-29T19:00:47.628Z,90.30
2018-09-29T19:03:16.358Z,90.60
2018-09-29T19:05:45.126Z,90.30
2018-09-29T19:08:13.842Z,90.40
2018-09-29T19:10:42.670Z,90.50
2018-09-29T19:13:11.378Z,90.40
2018-09-29T19:15:40.150Z,90.50
2018-09-29T19:18:08.854Z,90.40
2018-09-29T19:20:37.570Z,90.50
2018-09-29T19:23:06.320Z,90.50
2018-09-29T19:25:35.042Z,90.60
2018-09-29T19:28:03.798Z,90.60
2018-09-29T19:30:32.570Z,90.60
2018-09-29T19:33:01.330Z,91.10
2018-09-29T19:35:30.082Z,90.80
2018-09-29T19:37:58.803Z,90.70
2018-09-29T19:40:27.510Z,90.80
2018-09-29T19:42:56.222Z,90.80
2018-09-29T19:45:24.953Z,90.80
2018-09-29T19:47:53.654Z,90.80
2018-09-29T19:50:22.404Z,90.90
2018-09-29T19:52:51.082Z,91.00
2018-09-29T19:55:19.801Z,91.00
2018-09-29T19:57:48.510Z,91.00
2018-09-29T20:00:17.250Z,91.00
2018-09-29T20:02:46.017Z,91.00
2018-09-29T20:05:14.786Z,91.00
2018-09-29T20:07:43.555Z,91.00
2018-09-29T20:10:12.299Z,91.00
2018-09-29T20:12:41.062Z,91.10
2018-09-29T20:15:09.773Z,91.10
2018-09-29T20:17:38.491Z,91.10
2018-09-29T20:20:07.326Z,91.10
2018-09-29T20:22:36.102Z,91.10
2018-09-29T20:25:04.864Z,91.20
2018-09-29T20:27:33.634Z,91.20
2018-09-29T20:30:02.510Z,91.30
2018-09-29T20:32:31.242Z,91.30
2018-09-29T20:34:59.987Z,91.30
2018-09-29T20:37:28.718Z,91.30
2018-09-29T20:39:57.457Z,91.40
2018-09-29T20:42:26.210Z,91.40
2018-09-29T20:44:54.914Z,91.40
2018-09-29T20:47:23.618Z,91.40
2018-09-29T20:49:52.320Z,91.40
2018-09-29T20:52:21.176Z,91.40
2018-09-29T20:54:49.882Z,91.40
2018-09-29T20:57:18.618Z,91.50
2018-09-29T20:59:47.348Z,91.50
2018-09-29T21:02:16.114Z,91.50
2018-09-29T21:04:44.853Z,91.40
2018-09-29T21:07:13.590Z,91.50
2018-09-29T21:09:42.283Z,91.50
2018-09-29T21:12:11.014Z,91.50
2018-09-29T21:14:39.697Z,91.50
2018-09-29T21:17:08.385Z,91.60
2018-09-29T21:19:37.114Z,91.60
2018-09-29T21:22:05.831Z,91.60
2018-09-29T21:24:34.585Z,91.50
2018-09-29T21:27:03.353Z,91.50
2018-09-29T21:29:32.109Z,91.50
2018-09-29T21:32:00.894Z,91.60
2018-09-29T21:34:29.641Z,91.70
2018-09-29T21:36:58.373Z,91.60
2018-09-29T21:39:27.160Z,91.70
2018-09-29T21:41:55.894Z,91.60
2018-09-29T21:44:24.650Z,91.70
2018-09-29T21:46:53.461Z,91.60
2018-09-29T21:49:22.246Z,91.60
2018-09-29T21:51:50.959Z,91.60
2018-09-29T21:54:19.926Z,91.70
2018-09-29T21:56:48.669Z,91.70
2018-09-29T21:59:17.430Z,91.80
2018-09-29T22:01:46.133Z,91.70
2018-09-29T22:04:14.902Z,91.70
2018-09-29T22:06:43.605Z,91.70
2018-09-29T22:09:16.507Z,91.70
2018-09-29T22:11:45.194Z,91.70
2018-09-29T22:14:13.921Z,91.80
2018-09-29T22:16:42.625Z,91.70
2018-09-29T22:19:11.362Z,91.80
2018-09-29T22:21:40.066Z,91.80
2018-09-29T22:24:08.910Z,92.00
2018-09-29T22:26:37.711Z,91.90
2018-09-29T22:29:06.742Z,91.90
2018-09-29T22:31:35.553Z,91.90
2018-09-29T22:34:04.334Z,91.90
2018-09-29T22:36:33.078Z,92.00
2018-09-29T22:39:01.802Z,92.00
2018-09-29T22:41:30.597Z,91.90
2018-09-29T22:43:59.306Z,92.10
2018-09-29T22:46:28.034Z,92.10
2018-09-29T22:48:56.728Z,92.00
2018-09-29T22:51:25.466Z,92.00
2018-09-29T22:53:54.217Z,91.90
2018-09-29T22:56:22.950Z,91.90
2018-09-29T22:58:51.633Z,92.00
2018-09-29T23:01:20.346Z,92.00
2018-09-29T23:03:49.054Z,92.00
2018-09-29T23:06:17.819Z,92.00
2018-09-29T23:08:46.489Z,92.00
2018-09-29T23:11:15.220Z,92.00
2018-09-29T23:13:43.927Z,92.00
2018-09-29T23:16:13.617Z,92.20
2018-09-29T23:18:42.331Z,92.10
2018-09-29T23:21:11.089Z,92.10
2018-09-29T23:23:39.821Z,92.10
2018-09-29T23:26:08.590Z,92.10
2018-09-29T23:28:37.301Z,92.10
2018-09-29T23:31:06.250Z,92.10
2018-09-29T23:33:35.035Z,92.10
2018-09-29T23:36:03.809Z,92.10
2018-09-29T23:38:32.550Z,92.10
2018-09-29T23:41:01.404Z,92.20
2018-09-29T23:43:30.141Z,92.20
2018-09-29T23:45:58.881Z,92.20
2018-09-29T23:48:27.679Z,92.10
2018-09-29T23:50:56.412Z,92.20
2018-09-29T23:53:25.145Z,92.20
2018-09-29T23:55:53.858Z,92.30
2018-09-29T23:58:22.573Z,92.30
